<?xml version="1.0" encoding="UTF-8"?>
<gpx version="1.0" creator="Trackator" xmlns:xsi="http://www.w3.org/2001/XMLSchema-instance" xmlns="http://www.topografix.com/GPX/1/0" xmlns:topografix="http://www.topografix.com/GPX/Private/TopoGrafix/0/1" xsi:schemaLocation="http://www.topografix.com/GPX/1/0 http://www.topografix.com/GPX/1/0/gpx.xsd http://www.topografix.com/GPX/Private/TopoGrafix/0/1 http://www.topografix.com/GPX/Private/TopoGrafix/0/1/topografix.xsd">
<metadata>
<link href="http://www.trackator.com">
<text>Trackator</text>
</link>
</metadata>
<time>2015-05-17T15:18:23Z</time>
<trk>
<name>Track: </name>
<desc>Running</desc>
<trkseg>
<trkpt lat="53.347925" lon="18.446111">
<ele>72</ele>
<time>2015-05-17T15:18:23Z</time>
</trkpt>
<trkpt lat="53.347926" lon="18.446111">
<ele>71</ele>
<time>2015-05-17T15:18:28Z</time>
</trkpt>
<trkpt lat="53.347926" lon="18.446111">
<ele>70</ele>
<time>2015-05-17T15:18:31Z</time>
</trkpt>
<trkpt lat="53.347928" lon="18.44611">
<ele>69</ele>
<time>2015-05-17T15:18:33Z</time>
</trkpt>
<trkpt lat="53.347928" lon="18.44611">
<ele>69</ele>
<time>2015-05-17T15:18:35Z</time>
</trkpt>
<trkpt lat="53.347928" lon="18.446106">
<ele>68</ele>
<time>2015-05-17T15:18:37Z</time>
</trkpt>
<trkpt lat="53.347926" lon="18.446105">
<ele>67</ele>
<time>2015-05-17T15:18:39Z</time>
</trkpt>
<trkpt lat="53.347926" lon="18.446103">
<ele>67</ele>
<time>2015-05-17T15:18:41Z</time>
</trkpt>
<trkpt lat="53.347925" lon="18.4461">
<ele>66</ele>
<time>2015-05-17T15:18:43Z</time>
</trkpt>
<trkpt lat="53.347921" lon="18.446096">
<ele>65</ele>
<time>2015-05-17T15:18:46Z</time>
</trkpt>
<trkpt lat="53.34792" lon="18.446095">
<ele>64</ele>
<time>2015-05-17T15:18:49Z</time>
</trkpt>
<trkpt lat="53.347916" lon="18.446091">
<ele>63</ele>
<time>2015-05-17T15:18:52Z</time>
</trkpt>
<trkpt lat="53.347915" lon="18.44609">
<ele>63</ele>
<time>2015-05-17T15:18:54Z</time>
</trkpt>
<trkpt lat="53.347913" lon="18.446088">
<ele>62</ele>
<time>2015-05-17T15:18:56Z</time>
</trkpt>
<trkpt lat="53.347908" lon="18.446083">
<ele>61</ele>
<time>2015-05-17T15:18:59Z</time>
</trkpt>
<trkpt lat="53.347906" lon="18.446081">
<ele>61</ele>
<time>2015-05-17T15:19:01Z</time>
</trkpt>
<trkpt lat="53.347903" lon="18.446078">
<ele>60</ele>
<time>2015-05-17T15:19:03Z</time>
</trkpt>
<trkpt lat="53.3479" lon="18.446075">
<ele>60</ele>
<time>2015-05-17T15:19:05Z</time>
</trkpt>
<trkpt lat="53.347896" lon="18.446073">
<ele>59</ele>
<time>2015-05-17T15:19:07Z</time>
</trkpt>
<trkpt lat="53.347893" lon="18.44607">
<ele>59</ele>
<time>2015-05-17T15:19:09Z</time>
</trkpt>
<trkpt lat="53.347891" lon="18.446066">
<ele>59</ele>
<time>2015-05-17T15:19:11Z</time>
</trkpt>
<trkpt lat="53.347886" lon="18.446063">
<ele>58</ele>
<time>2015-05-17T15:19:14Z</time>
</trkpt>
<trkpt lat="53.347883" lon="18.44606">
<ele>58</ele>
<time>2015-05-17T15:19:16Z</time>
</trkpt>
<trkpt lat="53.34788" lon="18.446058">
<ele>57</ele>
<time>2015-05-17T15:19:18Z</time>
</trkpt>
<trkpt lat="53.347878" lon="18.446055">
<ele>57</ele>
<time>2015-05-17T15:19:20Z</time>
</trkpt>
<trkpt lat="53.347875" lon="18.446051">
<ele>56</ele>
<time>2015-05-17T15:19:22Z</time>
</trkpt>
<trkpt lat="53.347871" lon="18.446048">
<ele>56</ele>
<time>2015-05-17T15:19:25Z</time>
</trkpt>
<trkpt lat="53.347868" lon="18.446045">
<ele>55</ele>
<time>2015-05-17T15:19:27Z</time>
</trkpt>
<trkpt lat="53.347866" lon="18.446043">
<ele>55</ele>
<time>2015-05-17T15:19:29Z</time>
</trkpt>
<trkpt lat="53.347865" lon="18.44604">
<ele>54</ele>
<time>2015-05-17T15:19:31Z</time>
</trkpt>
<trkpt lat="53.34786" lon="18.446035">
<ele>53</ele>
<time>2015-05-17T15:19:35Z</time>
</trkpt>
<trkpt lat="53.347858" lon="18.446031">
<ele>53</ele>
<time>2015-05-17T15:19:38Z</time>
</trkpt>
<trkpt lat="53.347858" lon="18.44603">
<ele>52</ele>
<time>2015-05-17T15:19:40Z</time>
</trkpt>
<trkpt lat="53.347858" lon="18.446028">
<ele>52</ele>
<time>2015-05-17T15:19:42Z</time>
</trkpt>
<trkpt lat="53.347856" lon="18.446028">
<ele>51</ele>
<time>2015-05-17T15:19:44Z</time>
</trkpt>
<trkpt lat="53.347856" lon="18.446026">
<ele>51</ele>
<time>2015-05-17T15:19:46Z</time>
</trkpt>
<trkpt lat="53.347855" lon="18.446025">
<ele>50</ele>
<time>2015-05-17T15:19:48Z</time>
</trkpt>
<trkpt lat="53.347855" lon="18.446023">
<ele>50</ele>
<time>2015-05-17T15:19:50Z</time>
</trkpt>
<trkpt lat="53.347855" lon="18.446023">
<ele>50</ele>
<time>2015-05-17T15:19:52Z</time>
</trkpt>
<trkpt lat="53.347853" lon="18.446021">
<ele>49</ele>
<time>2015-05-17T15:19:54Z</time>
</trkpt>
<trkpt lat="53.347853" lon="18.44602">
<ele>49</ele>
<time>2015-05-17T15:19:56Z</time>
</trkpt>
<trkpt lat="53.347851" lon="18.446018">
<ele>48</ele>
<time>2015-05-17T15:20:02Z</time>
</trkpt>
<trkpt lat="53.347851" lon="18.446018">
<ele>48</ele>
<time>2015-05-17T15:20:04Z</time>
</trkpt>
<trkpt lat="53.34785" lon="18.446018">
<ele>48</ele>
<time>2015-05-17T15:20:06Z</time>
</trkpt>
<trkpt lat="53.347848" lon="18.446016">
<ele>47</ele>
<time>2015-05-17T15:20:08Z</time>
</trkpt>
<trkpt lat="53.347848" lon="18.446016">
<ele>47</ele>
<time>2015-05-17T15:20:10Z</time>
</trkpt>
<trkpt lat="53.347846" lon="18.446016">
<ele>47</ele>
<time>2015-05-17T15:20:12Z</time>
</trkpt>
<trkpt lat="53.347846" lon="18.446016">
<ele>47</ele>
<time>2015-05-17T15:20:14Z</time>
</trkpt>
<trkpt lat="53.347845" lon="18.446016">
<ele>47</ele>
<time>2015-05-17T15:20:16Z</time>
</trkpt>
<trkpt lat="53.347845" lon="18.446016">
<ele>47</ele>
<time>2015-05-17T15:20:18Z</time>
</trkpt>
<trkpt lat="53.347845" lon="18.446016">
<ele>47</ele>
<time>2015-05-17T15:20:20Z</time>
</trkpt>
<trkpt lat="53.347845" lon="18.446016">
<ele>47</ele>
<time>2015-05-17T15:20:23Z</time>
</trkpt>
<trkpt lat="53.347845" lon="18.446016">
<ele>47</ele>
<time>2015-05-17T15:20:26Z</time>
</trkpt>
<trkpt lat="53.347845" lon="18.446016">
<ele>47</ele>
<time>2015-05-17T15:20:28Z</time>
</trkpt>
<trkpt lat="53.347845" lon="18.446016">
<ele>47</ele>
<time>2015-05-17T15:20:30Z</time>
</trkpt>
<trkpt lat="53.347845" lon="18.446016">
<ele>47</ele>
<time>2015-05-17T15:20:32Z</time>
</trkpt>
<trkpt lat="53.347845" lon="18.446016">
<ele>47</ele>
<time>2015-05-17T15:20:34Z</time>
</trkpt>
<trkpt lat="53.347845" lon="18.446016">
<ele>47</ele>
<time>2015-05-17T15:20:37Z</time>
</trkpt>
<trkpt lat="53.347845" lon="18.446016">
<ele>47</ele>
<time>2015-05-17T15:20:40Z</time>
</trkpt>
<trkpt lat="53.347845" lon="18.446016">
<ele>47</ele>
<time>2015-05-17T15:20:42Z</time>
</trkpt>
<trkpt lat="53.347845" lon="18.446016">
<ele>47</ele>
<time>2015-05-17T15:20:45Z</time>
</trkpt>
<trkpt lat="53.347845" lon="18.446016">
<ele>47</ele>
<time>2015-05-17T15:20:47Z</time>
</trkpt>
<trkpt lat="53.347845" lon="18.446016">
<ele>47</ele>
<time>2015-05-17T15:20:49Z</time>
</trkpt>
<trkpt lat="53.347845" lon="18.446015">
<ele>47</ele>
<time>2015-05-17T15:20:51Z</time>
</trkpt>
<trkpt lat="53.347845" lon="18.446015">
<ele>47</ele>
<time>2015-05-17T15:20:53Z</time>
</trkpt>
<trkpt lat="53.347845" lon="18.446015">
<ele>47</ele>
<time>2015-05-17T15:20:55Z</time>
</trkpt>
<trkpt lat="53.347845" lon="18.446015">
<ele>47</ele>
<time>2015-05-17T15:20:57Z</time>
</trkpt>
<trkpt lat="53.347845" lon="18.446015">
<ele>47</ele>
<time>2015-05-17T15:20:59Z</time>
</trkpt>
<trkpt lat="53.347845" lon="18.446015">
<ele>47</ele>
<time>2015-05-17T15:21:01Z</time>
</trkpt>
<trkpt lat="53.347845" lon="18.446015">
<ele>47</ele>
<time>2015-05-17T15:21:03Z</time>
</trkpt>
<trkpt lat="53.347845" lon="18.446015">
<ele>47</ele>
<time>2015-05-17T15:21:05Z</time>
</trkpt>
<trkpt lat="53.347845" lon="18.446015">
<ele>47</ele>
<time>2015-05-17T15:21:08Z</time>
</trkpt>
<trkpt lat="53.347845" lon="18.446015">
<ele>47</ele>
<time>2015-05-17T15:21:10Z</time>
</trkpt>
<trkpt lat="53.347843" lon="18.446015">
<ele>47</ele>
<time>2015-05-17T15:21:12Z</time>
</trkpt>
<trkpt lat="53.347843" lon="18.446015">
<ele>47</ele>
<time>2015-05-17T15:21:14Z</time>
</trkpt>
<trkpt lat="53.347843" lon="18.446015">
<ele>47</ele>
<time>2015-05-17T15:21:16Z</time>
</trkpt>
<trkpt lat="53.347843" lon="18.446015">
<ele>47</ele>
<time>2015-05-17T15:21:19Z</time>
</trkpt>
<trkpt lat="53.347843" lon="18.446015">
<ele>47</ele>
<time>2015-05-17T15:21:23Z</time>
</trkpt>
<trkpt lat="53.347843" lon="18.446015">
<ele>47</ele>
<time>2015-05-17T15:21:25Z</time>
</trkpt>
<trkpt lat="53.347843" lon="18.446015">
<ele>47</ele>
<time>2015-05-17T15:21:27Z</time>
</trkpt>
<trkpt lat="53.347843" lon="18.446015">
<ele>47</ele>
<time>2015-05-17T15:21:29Z</time>
</trkpt>
<trkpt lat="53.347843" lon="18.446015">
<ele>47</ele>
<time>2015-05-17T15:21:31Z</time>
</trkpt>
<trkpt lat="53.347843" lon="18.446015">
<ele>47</ele>
<time>2015-05-17T15:21:33Z</time>
</trkpt>
<trkpt lat="53.347843" lon="18.446013">
<ele>47</ele>
<time>2015-05-17T15:21:35Z</time>
</trkpt>
<trkpt lat="53.347843" lon="18.446015">
<ele>47</ele>
<time>2015-05-17T15:21:37Z</time>
</trkpt>
<trkpt lat="53.347843" lon="18.446015">
<ele>47</ele>
<time>2015-05-17T15:21:39Z</time>
</trkpt>
<trkpt lat="53.347843" lon="18.446013">
<ele>47</ele>
<time>2015-05-17T15:21:41Z</time>
</trkpt>
<trkpt lat="53.347843" lon="18.446013">
<ele>47</ele>
<time>2015-05-17T15:21:43Z</time>
</trkpt>
<trkpt lat="53.347841" lon="18.446015">
<ele>47</ele>
<time>2015-05-17T15:21:45Z</time>
</trkpt>
<trkpt lat="53.347841" lon="18.446015">
<ele>47</ele>
<time>2015-05-17T15:21:47Z</time>
</trkpt>
<trkpt lat="53.347841" lon="18.446015">
<ele>47</ele>
<time>2015-05-17T15:21:49Z</time>
</trkpt>
<trkpt lat="53.347841" lon="18.446013">
<ele>47</ele>
<time>2015-05-17T15:21:51Z</time>
</trkpt>
<trkpt lat="53.347841" lon="18.446013">
<ele>47</ele>
<time>2015-05-17T15:21:53Z</time>
</trkpt>
<trkpt lat="53.347841" lon="18.446013">
<ele>47</ele>
<time>2015-05-17T15:21:55Z</time>
</trkpt>
<trkpt lat="53.347841" lon="18.446013">
<ele>47</ele>
<time>2015-05-17T15:21:58Z</time>
</trkpt>
<trkpt lat="53.347841" lon="18.446013">
<ele>47</ele>
<time>2015-05-17T15:22:00Z</time>
</trkpt>
<trkpt lat="53.347841" lon="18.446013">
<ele>47</ele>
<time>2015-05-17T15:22:02Z</time>
</trkpt>
<trkpt lat="53.347841" lon="18.446013">
<ele>47</ele>
<time>2015-05-17T15:22:04Z</time>
</trkpt>
<trkpt lat="53.347841" lon="18.446013">
<ele>47</ele>
<time>2015-05-17T15:22:06Z</time>
</trkpt>
<trkpt lat="53.347841" lon="18.446013">
<ele>47</ele>
<time>2015-05-17T15:22:08Z</time>
</trkpt>
<trkpt lat="53.347841" lon="18.446013">
<ele>47</ele>
<time>2015-05-17T15:22:10Z</time>
</trkpt>
<trkpt lat="53.347841" lon="18.446013">
<ele>47</ele>
<time>2015-05-17T15:22:12Z</time>
</trkpt>
<trkpt lat="53.347841" lon="18.446013">
<ele>47</ele>
<time>2015-05-17T15:22:14Z</time>
</trkpt>
<trkpt lat="53.347841" lon="18.446013">
<ele>47</ele>
<time>2015-05-17T15:22:16Z</time>
</trkpt>
<trkpt lat="53.347841" lon="18.446013">
<ele>47</ele>
<time>2015-05-17T15:22:18Z</time>
</trkpt>
<trkpt lat="53.347841" lon="18.446013">
<ele>47</ele>
<time>2015-05-17T15:22:20Z</time>
</trkpt>
<trkpt lat="53.347841" lon="18.446013">
<ele>47</ele>
<time>2015-05-17T15:22:22Z</time>
</trkpt>
<trkpt lat="53.347841" lon="18.446013">
<ele>47</ele>
<time>2015-05-17T15:22:24Z</time>
</trkpt>
<trkpt lat="53.347841" lon="18.446013">
<ele>47</ele>
<time>2015-05-17T15:22:26Z</time>
</trkpt>
<trkpt lat="53.347841" lon="18.446013">
<ele>47</ele>
<time>2015-05-17T15:22:28Z</time>
</trkpt>
<trkpt lat="53.347841" lon="18.446013">
<ele>47</ele>
<time>2015-05-17T15:22:30Z</time>
</trkpt>
<trkpt lat="53.347841" lon="18.446013">
<ele>47</ele>
<time>2015-05-17T15:22:32Z</time>
</trkpt>
<trkpt lat="53.347841" lon="18.446013">
<ele>47</ele>
<time>2015-05-17T15:22:34Z</time>
</trkpt>
<trkpt lat="53.34784" lon="18.446013">
<ele>47</ele>
<time>2015-05-17T15:22:36Z</time>
</trkpt>
<trkpt lat="53.34784" lon="18.446013">
<ele>47</ele>
<time>2015-05-17T15:22:38Z</time>
</trkpt>
<trkpt lat="53.34784" lon="18.446013">
<ele>47</ele>
<time>2015-05-17T15:22:40Z</time>
</trkpt>
<trkpt lat="53.34784" lon="18.446013">
<ele>47</ele>
<time>2015-05-17T15:22:42Z</time>
</trkpt>
<trkpt lat="53.34784" lon="18.446013">
<ele>47</ele>
<time>2015-05-17T15:22:44Z</time>
</trkpt>
<trkpt lat="53.34784" lon="18.446013">
<ele>47</ele>
<time>2015-05-17T15:22:46Z</time>
</trkpt>
<trkpt lat="53.34784" lon="18.446013">
<ele>47</ele>
<time>2015-05-17T15:22:49Z</time>
</trkpt>
<trkpt lat="53.34784" lon="18.446013">
<ele>47</ele>
<time>2015-05-17T15:22:51Z</time>
</trkpt>
<trkpt lat="53.34784" lon="18.446013">
<ele>47</ele>
<time>2015-05-17T15:22:54Z</time>
</trkpt>
<trkpt lat="" lon="">
<ele></ele>
<time>2015-05-17TZ</time>
</trkpt>
</trkseg>
</trk>
<wpt lat="" lon="">
	<name></name>
	<desc></desc>
	<cmt></cmt>
	<photoid></photoid>
	<type></type>
</wpt>
</gpx>
